createdAt,value
2019-05-15T00:00:41.442Z,2.90
2019-05-15T00:03:11.255Z,3.07
2019-05-15T00:05:43.073Z,2.67
2019-05-15T00:08:12.812Z,2.57
2019-05-15T00:10:42.732Z,3.00
2019-05-15T00:13:12.661Z,3.13
2019-05-15T00:15:42.837Z,2.90
2019-05-15T00:18:12.590Z,2.77
2019-05-15T00:20:42.808Z,2.90
2019-05-15T00:23:12.576Z,2.83
2019-05-15T00:25:42.221Z,3.13
2019-05-15T00:28:11.989Z,3.37
2019-05-15T00:30:41.751Z,3.10
2019-05-15T00:33:11.512Z,2.73
2019-05-15T00:35:41.190Z,2.90
2019-05-15T00:38:10.924Z,2.87
2019-05-15T00:40:40.695Z,2.60
2019-05-15T00:43:10.599Z,3.27
2019-05-15T00:45:40.391Z,3.60
2019-05-15T00:48:10.989Z,3.50
2019-05-15T00:50:40.743Z,3.60
2019-05-15T00:53:10.526Z,3.27
2019-05-15T00:55:40.306Z,3.50
2019-05-15T00:58:10.083Z,3.07
2019-05-15T01:00:42.567Z,3.33
2019-05-15T01:03:12.375Z,3.30
2019-05-15T01:05:42.115Z,3.22
2019-05-15T01:08:11.826Z,3.10
2019-05-15T01:10:41.455Z,3.30
2019-05-15T01:13:11.159Z,3.40
2019-05-15T03:25:19.727Z,4.03
2019-05-15T03:27:50.048Z,4.00
2019-05-15T03:30:21.853Z,3.60
2019-05-15T03:33:01.146Z,3.63
2019-05-15T03:35:23.562Z,3.63
2019-05-15T03:37:53.441Z,3.77
2019-05-15T03:40:23.132Z,3.73
2019-05-15T03:42:52.927Z,3.90
2019-05-15T03:45:22.720Z,4.17
2019-05-15T03:47:52.605Z,3.87
2019-05-15T03:50:22.284Z,4.30
2019-05-15T03:52:51.927Z,4.00
2019-05-15T03:55:21.600Z,4.00
2019-05-15T03:57:51.441Z,3.67
2019-05-15T04:00:21.258Z,4.00
2019-05-15T04:02:51.185Z,3.47
2019-05-15T04:05:20.943Z,4.03
2019-05-15T04:07:50.667Z,3.90
2019-05-15T04:10:20.607Z,4.28
2019-05-15T04:12:50.390Z,4.00
2019-05-15T04:15:20.194Z,3.80
2019-05-15T04:17:49.866Z,4.07
2019-05-15T04:20:20.252Z,3.67
2019-05-15T04:22:50.127Z,3.83
2019-05-15T04:25:19.889Z,4.13
2019-05-15T04:27:50.272Z,4.30
2019-05-15T04:30:20.973Z,3.65
2019-05-15T04:32:50.702Z,4.00
2019-05-15T04:35:20.725Z,4.27
2019-05-15T04:37:50.537Z,3.85
2019-05-15T04:40:20.473Z,3.50
2019-05-15T04:42:50.133Z,3.58
2019-05-15T04:45:21.831Z,3.97
2019-05-15T04:47:51.569Z,4.08
2019-05-15T04:50:21.247Z,3.75
2019-05-15T04:52:50.886Z,3.63
2019-05-15T04:55:20.673Z,3.77
2019-05-15T04:57:50.485Z,3.83
2019-05-15T05:00:43.532Z,3.80
2019-05-15T05:03:13.379Z,3.77
2019-05-15T05:05:43.114Z,3.23
2019-05-15T05:08:13.304Z,3.33
2019-05-15T05:10:43.607Z,4.07
2019-05-15T05:13:14.451Z,3.80
2019-05-15T05:15:44.171Z,3.63
2019-05-15T05:18:14.087Z,4.13
2019-05-15T05:20:43.835Z,3.13
2019-05-15T05:23:14.640Z,3.40
2019-05-15T05:25:45.316Z,3.40
2019-05-15T05:28:15.160Z,3.17
2019-05-15T05:30:44.817Z,3.10
2019-05-15T05:33:14.560Z,3.33
2019-05-15T05:35:44.292Z,3.03
2019-05-15T05:38:14.783Z,2.70
2019-05-15T05:40:44.617Z,2.90
2019-05-15T05:43:14.439Z,2.60
2019-05-15T05:45:44.153Z,2.30
2019-05-15T05:48:13.863Z,2.73
2019-05-15T05:50:44.818Z,2.62
2019-05-15T05:53:14.376Z,2.30
2019-05-15T05:55:44.840Z,2.20
2019-05-15T05:58:14.613Z,2.30
2019-05-15T06:00:48.571Z,1.95
2019-05-15T06:03:19.531Z,2.27
2019-05-15T06:05:49.692Z,2.27
2019-05-15T06:08:20.199Z,2.10
2019-05-15T06:10:50.154Z,2.33
2019-05-15T06:13:19.906Z,2.40
2019-05-15T06:15:49.696Z,1.97
2019-05-15T06:18:20.073Z,2.60
2019-05-15T06:20:51.342Z,1.80
2019-05-15T06:23:24.314Z,1.70
2019-05-15T06:25:52.797Z,2.23
2019-05-15T06:28:22.544Z,2.37
2019-05-15T06:30:52.267Z,2.37
2019-05-15T06:33:22.060Z,1.83
2019-05-15T06:35:51.770Z,1.67
2019-05-15T06:38:22.421Z,1.98
2019-05-15T06:40:52.301Z,1.73
2019-05-15T06:43:22.103Z,1.90
2019-05-15T06:45:51.780Z,1.90
2019-05-15T06:48:21.549Z,1.60
2019-05-15T06:50:52.453Z,1.53
2019-05-15T06:53:22.067Z,1.33
2019-05-15T06:55:51.720Z,1.45
2019-05-15T06:58:24.951Z,1.60
2019-05-15T07:00:52.992Z,1.70
2019-05-15T07:03:25.730Z,1.60
2019-05-15T07:05:54.134Z,2.03
2019-05-15T07:08:23.802Z,1.50
2019-05-15T07:10:53.618Z,1.57
2019-05-15T07:13:23.385Z,1.70
2019-05-15T07:15:53.388Z,1.50
2019-05-15T07:18:23.109Z,1.30
2019-05-15T07:20:53.752Z,1.70
2019-05-15T07:23:27.110Z,1.50
2019-05-15T07:25:55.067Z,1.30
2019-05-15T07:28:25.153Z,1.67
2019-05-15T07:30:55.527Z,1.20
2019-05-15T07:33:36.717Z,1.47
2019-05-15T07:35:59.009Z,1.00
2019-05-15T07:38:28.576Z,1.15
2019-05-15T07:41:03.344Z,1.30
2019-05-15T07:43:30.060Z,1.22
2019-05-15T07:45:59.737Z,1.10
2019-05-15T07:48:29.387Z,1.57
2019-05-15T07:50:59.590Z,0.90
2019-05-15T07:53:29.423Z,1.25
2019-05-15T07:56:01.199Z,1.37
2019-05-15T07:58:30.749Z,1.03
2019-05-15T08:01:00.417Z,1.10
2019-05-15T08:03:30.151Z,1.23
2019-05-15T08:06:03.139Z,1.32
2019-05-15T08:08:31.445Z,1.00
2019-05-15T08:11:16.175Z,1.02
2019-05-15T08:13:32.629Z,0.90
2019-05-15T08:16:02.357Z,0.90
2019-05-15T08:18:32.041Z,1.13
2019-05-15T08:21:01.944Z,1.20
2019-05-15T08:23:31.887Z,1.12
2019-05-15T08:26:01.694Z,1.20
2019-05-15T08:28:31.437Z,0.88
2019-05-15T08:31:01.869Z,1.08
2019-05-15T08:33:31.883Z,1.55
2019-05-15T08:36:01.815Z,1.30
2019-05-15T08:38:31.584Z,1.00
2019-05-15T08:41:01.371Z,0.95
2019-05-15T08:43:31.522Z,1.35
2019-05-15T08:46:01.386Z,1.30
2019-05-15T08:48:32.913Z,1.40
2019-05-15T08:51:02.979Z,1.35
2019-05-15T08:53:32.842Z,1.20
2019-05-15T08:56:02.678Z,1.10
2019-05-15T08:58:32.467Z,1.30
2019-05-15T09:01:02.331Z,1.20
2019-05-15T09:03:32.137Z,1.13
2019-05-15T09:06:01.895Z,1.30
2019-05-15T09:08:31.906Z,1.26
2019-05-15T09:11:01.803Z,1.32
2019-05-15T09:13:31.674Z,1.42
2019-05-15T09:16:01.344Z,1.30
2019-05-15T09:18:31.053Z,1.30
2019-05-15T09:21:00.773Z,1.10
2019-05-15T09:23:30.565Z,1.32
2019-05-15T09:26:00.222Z,1.30
2019-05-15T09:28:29.948Z,1.17
2019-05-15T09:30:59.659Z,1.57
2019-05-15T09:33:29.323Z,1.27
2019-05-15T09:35:59.076Z,1.20
2019-05-15T09:38:29.165Z,1.50
2019-05-15T09:40:58.885Z,1.10
2019-05-15T09:43:28.706Z,1.10
2019-05-15T09:45:58.554Z,1.12
2019-05-15T09:48:28.865Z,1.27
2019-05-15T09:50:58.938Z,1.15
2019-05-15T09:53:28.745Z,1.12
2019-05-15T09:55:59.971Z,1.20
2019-05-15T09:58:30.405Z,0.93
2019-05-15T10:01:00.369Z,1.42
2019-05-15T10:03:31.534Z,1.20
2019-05-15T10:06:01.646Z,0.90
2019-05-15T10:08:31.707Z,1.20
2019-05-15T10:11:01.537Z,1.33
2019-05-15T10:13:32.130Z,1.20
2019-05-15T10:16:01.801Z,1.27
2019-05-15T10:18:31.591Z,1.33
2019-05-15T10:21:01.328Z,1.05
2019-05-15T10:23:31.168Z,1.07
2019-05-15T10:26:01.107Z,1.25
2019-05-15T10:28:30.768Z,1.00
2019-05-15T10:31:00.419Z,1.05
2019-05-15T10:33:30.285Z,1.53
2019-05-15T10:36:00.181Z,1.50
2019-05-15T10:38:29.994Z,1.30
2019-05-15T10:41:08.516Z,0.80
2019-05-15T10:43:31.333Z,1.00
2019-05-15T10:46:01.530Z,1.17
2019-05-15T10:48:31.613Z,1.40
2019-05-15T10:51:06.523Z,1.20
2019-05-15T10:53:33.969Z,1.37
2019-05-15T10:56:03.775Z,1.00
2019-05-15T10:58:33.603Z,0.97
2019-05-15T11:01:03.943Z,1.20
2019-05-15T11:03:35.054Z,1.00
2019-05-15T11:06:05.132Z,1.30
2019-05-15T11:08:34.917Z,1.00
2019-05-15T11:11:04.852Z,1.30
2019-05-15T11:13:34.662Z,1.00
2019-05-15T11:16:04.601Z,1.20
2019-05-15T11:18:39.408Z,1.40
2019-05-15T11:21:09.479Z,1.10
2019-05-15T11:23:42.633Z,1.12
2019-05-15T11:26:10.982Z,0.90
2019-05-15T11:28:41.924Z,1.10
2019-05-15T11:31:12.713Z,1.00
2019-05-15T11:33:42.605Z,0.90
2019-05-15T11:36:12.343Z,1.30
2019-05-15T11:38:43.025Z,1.00
2019-05-15T11:41:12.913Z,1.10
2019-05-15T11:43:42.901Z,1.00
2019-05-15T11:46:13.718Z,1.10
2019-05-15T11:48:43.354Z,1.85
2019-05-15T11:51:13.112Z,0.97
2019-05-15T11:53:42.740Z,0.95
2019-05-15T11:56:12.536Z,1.20
2019-05-15T11:58:42.442Z,1.20
2019-05-15T12:01:12.074Z,1.40
2019-05-15T12:03:41.849Z,1.40
2019-05-15T12:06:18.581Z,1.20
2019-05-15T12:08:44.056Z,1.40
2019-05-15T12:11:28.728Z,0.90
2019-05-15T12:13:45.416Z,0.93
2019-05-15T12:16:15.151Z,1.00
2019-05-15T12:18:44.833Z,1.30
2019-05-15T12:21:19.596Z,1.75
2019-05-15T12:23:48.696Z,1.47
2019-05-15T12:26:17.455Z,1.03
2019-05-15T12:28:48.913Z,1.33
2019-05-15T12:31:24.417Z,1.00
2019-05-15T12:33:50.297Z,1.23
2019-05-15T12:38:51.871Z,1.10
2019-05-15T13:01:38.690Z,1.00
2019-05-15T13:04:52.921Z,1.10
2019-05-15T13:07:16.881Z,1.40
2019-05-15T13:10:08.664Z,1.20
2019-05-15T13:13:04.617Z,1.23
2019-05-15T13:15:31.703Z,0.90
2019-05-15T13:18:02.188Z,1.12
2019-05-15T13:20:35.171Z,1.10
2019-05-15T13:23:20.692Z,0.90
2019-05-15T13:25:53.365Z,1.00
2019-05-15T13:28:30.681Z,1.53
2019-05-15T13:31:00.613Z,1.27
2019-05-15T13:33:30.460Z,1.00
2019-05-15T13:36:00.201Z,1.00
2019-05-15T13:38:30.009Z,1.00
2019-05-15T13:41:01.155Z,1.20
2019-05-15T13:43:30.927Z,0.80
2019-05-15T13:46:00.853Z,1.10
2019-05-15T13:48:32.418Z,1.17
2019-05-15T13:51:04.192Z,1.10
2019-05-15T13:53:35.443Z,0.90
2019-05-15T13:56:05.862Z,1.20
2019-05-15T13:58:38.620Z,1.30
2019-05-15T14:01:09.414Z,0.90
2019-05-15T14:03:42.513Z,1.10
2019-05-15T14:06:12.970Z,1.00
2019-05-15T14:08:43.022Z,1.07
2019-05-15T14:11:21.161Z,1.00
2019-05-15T14:13:49.056Z,1.00
2019-05-15T14:16:19.420Z,1.00
2019-05-15T14:18:49.509Z,1.30
2019-05-15T14:21:19.893Z,1.60
2019-05-15T14:23:49.996Z,0.93
2019-05-15T14:26:23.659Z,1.30
2019-05-15T14:28:53.197Z,1.17
2019-05-15T14:31:23.768Z,1.17
2019-05-15T14:33:53.936Z,1.30
2019-05-15T14:36:23.936Z,1.73
2019-05-15T14:38:54.087Z,1.23
2019-05-15T14:41:24.243Z,1.20
2019-05-15T14:43:54.350Z,1.20
2019-05-15T14:46:24.473Z,1.00
2019-05-15T14:48:54.763Z,1.10
2019-05-15T14:51:24.834Z,1.40
2019-05-15T14:53:54.751Z,1.10
2019-05-15T14:56:24.726Z,1.50
2019-05-15T14:58:54.563Z,1.43
2019-05-15T15:01:24.342Z,1.40
2019-05-15T15:03:54.001Z,1.63
2019-05-15T15:06:23.728Z,1.50
2019-05-15T15:08:54.171Z,1.37
2019-05-15T15:11:23.932Z,1.30
2019-05-15T15:13:53.552Z,1.30
2019-05-15T15:16:23.225Z,1.30
2019-05-15T15:18:52.927Z,1.50
2019-05-15T15:21:22.997Z,1.40
2019-05-15T15:23:53.015Z,1.30
2019-05-15T15:26:23.550Z,1.80
2019-05-15T15:28:53.163Z,1.55
2019-05-15T15:31:23.057Z,1.33
2019-05-15T15:33:52.759Z,3.30
2019-05-15T15:36:22.807Z,2.20
2019-05-15T15:38:52.575Z,9.80
2019-05-15T15:41:22.707Z,3.80
2019-05-15T15:43:52.472Z,1.60
2019-05-15T15:46:22.241Z,1.93
2019-05-15T15:48:52.004Z,3.03
2019-05-15T15:51:22.017Z,1.67
2019-05-15T15:53:51.813Z,6.27
2019-05-15T15:56:21.571Z,4.80
2019-05-15T15:58:51.456Z,1.40
2019-05-15T16:01:23.921Z,1.20
2019-05-15T16:03:53.003Z,1.40
2019-05-15T16:06:23.125Z,1.56
2019-05-15T16:08:55.769Z,1.50
2019-05-15T16:11:24.564Z,1.40
2019-05-15T16:13:54.382Z,1.10
2019-05-15T16:16:24.084Z,1.35
2019-05-15T16:18:53.758Z,1.40
2019-05-15T16:21:23.657Z,1.70
2019-05-15T16:23:53.476Z,1.70
2019-05-15T16:26:23.404Z,2.10
2019-05-15T16:28:53.251Z,2.13
2019-05-15T16:31:23.027Z,1.33
2019-05-15T16:33:52.873Z,1.17
2019-05-15T16:36:40.741Z,1.30
2019-05-15T16:39:11.796Z,1.30
2019-05-15T16:41:42.044Z,1.37
2019-05-15T16:44:11.853Z,1.23
2019-05-15T16:46:41.970Z,1.40
2019-05-15T16:49:16.020Z,1.43
2019-05-15T16:51:51.057Z,1.50
2019-05-15T16:54:28.842Z,1.23
2019-05-15T16:57:00.274Z,1.17
2019-05-15T16:59:35.708Z,1.73
2019-05-15T17:02:04.146Z,1.12
2019-05-15T17:04:33.804Z,1.40
2019-05-15T17:07:03.564Z,1.57
2019-05-15T17:09:33.485Z,1.10
2019-05-15T17:12:03.605Z,1.13
2019-05-15T17:14:33.356Z,1.00
2019-05-15T17:17:03.112Z,1.10
2019-05-15T17:19:32.900Z,1.50
2019-05-15T17:22:04.785Z,1.30
2019-05-15T17:24:34.648Z,1.50
2019-05-15T17:27:10.325Z,1.10
2019-05-15T17:29:38.671Z,1.00
2019-05-15T17:32:08.668Z,1.20
2019-05-15T17:34:39.651Z,1.00
2019-05-15T17:37:09.433Z,1.33
2019-05-15T17:39:41.679Z,1.25
2019-05-15T17:42:10.901Z,1.30
2019-05-15T17:44:40.594Z,1.53
2019-05-15T17:47:11.339Z,1.30
2019-05-15T17:49:41.120Z,1.20
2019-05-15T17:52:11.108Z,1.15
2019-05-15T17:54:40.821Z,1.10
2019-05-15T17:57:10.387Z,1.10
2019-05-15T17:59:40.296Z,1.17
2019-05-15T18:02:10.131Z,1.20
2019-05-15T18:04:39.946Z,1.00
2019-05-15T18:07:09.737Z,1.10
2019-05-15T18:09:50.276Z,1.00
2019-05-15T18:12:12.753Z,0.90
2019-05-15T18:14:43.329Z,1.20
2019-05-15T18:17:13.587Z,0.93
2019-05-15T18:19:43.530Z,1.03
2019-05-15T18:22:14.087Z,0.98
2019-05-15T18:24:44.163Z,1.03
2019-05-15T18:27:14.000Z,1.30
2019-05-15T18:29:45.243Z,1.10
2019-05-15T18:32:15.852Z,1.00
2019-05-15T18:34:45.811Z,1.10
2019-05-15T18:37:15.888Z,1.10
2019-05-15T18:39:48.175Z,1.27
2019-05-15T18:42:18.597Z,1.30
2019-05-15T18:44:48.646Z,1.40
2019-05-15T18:47:18.949Z,1.50
2019-05-15T18:50:03.387Z,1.40
2019-05-15T18:52:20.407Z,1.40
2019-05-15T18:54:51.189Z,1.50
2019-05-15T18:57:20.906Z,1.27
2019-05-15T18:59:50.663Z,1.00
2019-05-15T19:02:20.457Z,1.53
2019-05-15T19:04:51.273Z,1.30
2019-05-15T19:07:21.211Z,1.20
2019-05-15T19:09:53.122Z,1.30
2019-05-15T19:12:23.091Z,1.53
2019-05-15T19:14:52.944Z,1.13
2019-05-15T19:17:22.993Z,1.10
2019-05-15T19:20:05.192Z,1.37
2019-05-15T19:22:35.424Z,1.40
2019-05-15T19:25:08.849Z,1.83
2019-05-15T19:27:41.035Z,1.40
2019-05-15T19:30:19.003Z,1.40
2019-05-15T19:32:49.073Z,1.30
2019-05-15T19:35:22.026Z,1.20
2019-05-15T19:37:51.951Z,1.77
2019-05-15T19:40:32.934Z,1.30
2019-05-15T19:43:09.322Z,1.50
2019-05-15T19:45:44.137Z,1.15
2019-05-15T19:48:20.140Z,1.47
2019-05-15T19:50:53.452Z,1.43
2019-05-15T19:53:23.368Z,1.80
2019-05-15T19:55:53.490Z,1.40
2019-05-15T19:58:25.847Z,1.20
2019-05-15T20:00:55.777Z,1.30
2019-05-15T20:03:25.680Z,1.73
2019-05-15T20:05:57.607Z,1.10
2019-05-15T20:08:27.847Z,1.47
2019-05-15T20:10:59.299Z,1.45
2019-05-15T20:13:31.543Z,1.70
2019-05-15T20:16:01.392Z,1.30
2019-05-15T20:18:31.268Z,1.50
2019-05-15T20:21:01.660Z,1.63
2019-05-15T20:23:31.649Z,1.33
2019-05-15T20:26:02.153Z,1.30
2019-05-15T20:28:32.113Z,1.50
2019-05-15T20:31:02.081Z,1.70
2019-05-15T20:33:31.964Z,1.63
2019-05-15T20:36:02.223Z,1.37
2019-05-15T20:38:32.091Z,1.80
2019-05-15T20:41:02.018Z,1.70
2019-05-15T20:43:31.879Z,1.47
2019-05-15T20:46:01.834Z,1.27
2019-05-15T20:48:31.721Z,1.57
2019-05-15T20:51:02.681Z,1.30
2019-05-15T20:53:32.539Z,1.50
2019-05-15T20:56:02.265Z,1.60
2019-05-15T20:58:32.147Z,1.72
2019-05-15T21:01:02.291Z,1.63
2019-05-15T21:03:32.990Z,1.70
2019-05-15T21:06:02.743Z,1.60
2019-05-15T21:08:33.636Z,2.03
2019-05-15T21:11:03.465Z,1.82
2019-05-15T21:13:33.241Z,1.47
2019-05-15T21:16:03.086Z,1.77
2019-05-15T21:18:32.804Z,1.80
2019-05-15T21:21:02.666Z,1.47
2019-05-15T21:23:32.712Z,1.73
2019-05-15T21:26:02.634Z,1.60
2019-05-15T21:28:32.358Z,1.83
2019-05-15T21:31:02.182Z,1.70
2019-05-15T21:33:32.149Z,1.47
2019-05-15T21:36:02.831Z,1.50
2019-05-15T21:38:32.503Z,1.80
2019-05-15T21:41:02.206Z,1.40
2019-05-15T21:43:32.412Z,1.77
2019-05-15T21:46:02.044Z,1.40
2019-05-15T21:48:31.704Z,1.50
2019-05-15T21:51:01.476Z,1.57
2019-05-15T21:53:32.445Z,1.80
2019-05-15T21:56:02.481Z,1.60
2019-05-15T21:58:32.429Z,1.47
2019-05-15T22:01:02.489Z,1.60
2019-05-15T22:03:34.200Z,1.50
2019-05-15T22:06:03.997Z,1.60
2019-05-15T22:08:33.749Z,1.52
2019-05-15T22:11:03.458Z,1.57
2019-05-15T22:13:33.311Z,1.90
2019-05-15T22:16:03.031Z,1.55
2019-05-15T22:18:32.680Z,2.00
2019-05-15T22:21:02.641Z,1.80
2019-05-15T22:23:32.468Z,1.77
2019-05-15T22:26:02.233Z,1.70
2019-05-15T22:28:31.912Z,1.50
2019-05-15T22:31:01.655Z,1.40
2019-05-15T22:33:31.438Z,1.60
2019-05-15T22:36:01.243Z,1.50
2019-05-15T22:38:31.106Z,1.87
2019-05-15T22:41:00.943Z,1.80
2019-05-15T22:43:30.739Z,2.27
2019-05-15T22:46:00.482Z,2.03
2019-05-15T22:48:31.458Z,1.90
2019-05-15T22:51:01.265Z,1.80
2019-05-15T22:53:31.201Z,1.60
2019-05-15T22:56:00.906Z,1.67
2019-05-15T22:58:30.603Z,1.80
2019-05-15T23:01:00.355Z,1.97
2019-05-15T23:03:30.692Z,1.87
2019-05-15T23:06:00.428Z,1.60
2019-05-15T23:08:30.942Z,1.80
2019-05-15T23:11:00.804Z,1.80
2019-05-15T23:13:30.471Z,1.63
2019-05-15T23:16:00.356Z,1.70
2019-05-15T23:18:30.245Z,1.80
2019-05-15T23:21:00.032Z,2.25
2019-05-15T23:23:29.685Z,1.60
2019-05-15T23:25:59.465Z,1.67
2019-05-15T23:28:29.081Z,1.70
2019-05-15T23:30:58.874Z,1.86
2019-05-15T23:33:28.568Z,2.07
2019-05-15T23:35:58.834Z,1.92
2019-05-15T23:38:28.668Z,1.97
2019-05-15T23:40:59.061Z,1.73
2019-05-15T23:43:30.074Z,1.80
2019-05-15T23:45:59.782Z,2.07
2019-05-15T23:48:29.564Z,2.25
2019-05-15T23:50:59.287Z,1.90
2019-05-15T23:53:29.054Z,1.87
2019-05-15T23:55:58.997Z,2.20
2019-05-15T23:58:29.357Z,1.93
